Terminal Aerodrome Forecast
Issued by NWS

Home | Current Version | Previous Version | Graphics & Text | Print | Product List | Glossary On
Versions: 1 2 3 4 5 6 7 8 9 10 11 12 13 14 15 16 17 18 19 20 21 22 23 24
000
FTUS43 KABR 060753 AAK
TAFMBG
TAF AMD
KMBG 060753Z 0608/0706 30030G39KT 1 1/2SM -SN BLSN BKN020 OVC040
     FM061200 31022G32KT P6SM -SN OVC015
     FM061900 31022G32KT P6SM OVC050
     FM062300 31020G27KT P6SM BKN040=

USA.gov is the U.S. government's official web portal to all federal, state and local government web resources and services.